sensor_id;sensor_type;location;lat;lon;timestamp;temperature;humidity
1728;DHT22;861;48.808;9.006;2023-02-26T00:01:42;2.30;99.90
1728;DHT22;861;48.808;9.006;2023-02-26T00:04:09;2.50;99.90
1728;DHT22;861;48.808;9.006;2023-02-26T00:06:39;2.50;99.90
1728;DHT22;861;48.808;9.006;2023-02-26T00:09:18;2.50;99.90
1728;DHT22;861;48.808;9.006;2023-02-26T00:11:46;2.40;99.90
1728;DHT22;861;48.808;9.006;2023-02-26T00:14:16;2.40;99.90
1728;DHT22;861;48.808;9.006;2023-02-26T00:16:52;2.40;99.90
1728;DHT22;861;48.808;9.006;2023-02-26T00:19:42;2.30;99.90
1728;DHT22;861;48.808;9.006;2023-02-26T00:22:09;2.20;99.90
1728;DHT22;861;48.808;9.006;2023-02-26T00:24:35;2.20;99.90
1728;DHT22;861;48.808;9.006;2023-02-26T00:27:02;2.10;99.90
1728;DHT22;861;48.808;9.006;2023-02-26T00:29:28;2.20;99.90
1728;DHT22;861;48.808;9.006;2023-02-26T00:31:55;2.20;99.90
1728;DHT22;861;48.808;9.006;2023-02-26T00:34:22;2.20;99.90
1728;DHT22;861;48.808;9.006;2023-02-26T00:37:26;2.20;99.90
1728;DHT22;861;48.808;9.006;2023-02-26T00:40:46;2.30;99.90
1728;DHT22;861;48.808;9.006;2023-02-26T00:43:23;2.30;99.90
1728;DHT22;861;48.808;9.006;2023-02-26T00:46:55;2.30;99.90
1728;DHT22;861;48.808;9.006;2023-02-26T00:50:16;2.30;99.90
1728;DHT22;861;48.808;9.006;2023-02-26T00:55:39;2.40;99.90
1728;DHT22;861;48.808;9.006;2023-02-26T00:58:05;2.40;99.90
1728;DHT22;861;48.808;9.006;2023-02-26T01:00:31;2.40;99.90
1728;DHT22;861;48.808;9.006;2023-02-26T01:02:58;2.20;99.90
1728;DHT22;861;48.808;9.006;2023-02-26T01:05:25;2.30;99.90
1728;DHT22;861;48.808;9.006;2023-02-26T01:10:55;2.00;99.90
1728;DHT22;861;48.808;9.006;2023-02-26T01:13:21;1.90;99.90
1728;DHT22;861;48.808;9.006;2023-02-26T01:16:01;1.90;99.90
1728;DHT22;861;48.808;9.006;2023-02-26T01:18:52;1.90;99.90
1728;DHT22;861;48.808;9.006;2023-02-26T01:21:42;2.00;99.90
1728;DHT22;861;48.808;9.006;2023-02-26T01:24:24;2.00;99.90
1728;DHT22;861;48.808;9.006;2023-02-26T01:26:56;2.00;99.90
1728;DHT22;861;48.808;9.006;2023-02-26T01:29:22;2.00;99.90
1728;DHT22;861;48.808;9.006;2023-02-26T01:32:23;2.10;99.90
1728;DHT22;861;48.808;9.006;2023-02-26T01:35:12;2.10;99.90
1728;DHT22;861;48.808;9.006;2023-02-26T01:44:32;2.00;99.90
1728;DHT22;861;48.808;9.006;2023-02-26T01:50:22;1.90;99.90
1728;DHT22;861;48.808;9.006;2023-02-26T01:53:18;2.00;99.90
1728;DHT22;861;48.808;9.006;2023-02-26T01:56:02;1.90;99.90
1728;DHT22;861;48.808;9.006;2023-02-26T01:58:40;1.90;99.90
1728;DHT22;861;48.808;9.006;2023-02-26T02:01:07;1.80;99.90
1728;DHT22;861;48.808;9.006;2023-02-26T02:03:39;1.70;99.90
1728;DHT22;861;48.808;9.006;2023-02-26T02:06:20;1.60;99.90
1728;DHT22;861;48.808;9.006;2023-02-26T02:08:51;1.80;99.90
1728;DHT22;861;48.808;9.006;2023-02-26T02:11:19;1.70;99.90
1728;DHT22;861;48.808;9.006;2023-02-26T02:18:00;1.50;99.90
1728;DHT22;861;48.808;9.006;2023-02-26T02:34:03;1.60;99.90
1728;DHT22;861;48.808;9.006;2023-02-26T02:40:01;1.40;99.90
1728;DHT22;861;48.808;9.006;2023-02-26T02:42:43;1.40;99.90
1728;DHT22;861;48.808;9.006;2023-02-26T02:48:49;1.40;99.90
1728;DHT22;861;48.808;9.006;2023-02-26T02:52:15;1.40;99.90
1728;DHT22;861;48.808;9.006;2023-02-26T02:55:06;1.50;99.90
1728;DHT22;861;48.808;9.006;2023-02-26T02:57:58;1.60;99.90
1728;DHT22;861;48.808;9.006;2023-02-26T03:00:58;1.60;99.90
1728;DHT22;861;48.808;9.006;2023-02-26T03:03:56;1.80;99.90
1728;DHT22;861;48.808;9.006;2023-02-26T03:06:29;1.80;99.90
1728;DHT22;861;48.808;9.006;2023-02-26T03:08:59;1.90;99.90
1728;DHT22;861;48.808;9.006;2023-02-26T03:11:29;1.90;99.90
1728;DHT22;861;48.808;9.006;2023-02-26T03:13:58;1.80;99.90
1728;DHT22;861;48.808;9.006;2023-02-26T03:17:05;1.90;99.90
1728;DHT22;861;48.808;9.006;2023-02-26T03:20:36;2.00;99.90
1728;DHT22;861;48.808;9.006;2023-02-26T03:23:33;2.00;99.90
1728;DHT22;861;48.808;9.006;2023-02-26T03:26:23;2.00;99.90
1728;DHT22;861;48.808;9.006;2023-02-26T03:29:49;2.00;99.90
1728;DHT22;861;48.808;9.006;2023-02-26T03:32:45;1.90;99.90
1728;DHT22;861;48.808;9.006;2023-02-26T03:35:52;2.00;99.90
1728;DHT22;861;48.808;9.006;2023-02-26T03:38:48;1.90;99.90
1728;DHT22;861;48.808;9.006;2023-02-26T03:41:37;1.90;99.90
1728;DHT22;861;48.808;9.006;2023-02-26T03:44:30;1.80;99.90
1728;DHT22;861;48.808;9.006;2023-02-26T03:47:13;1.80;99.90
1728;DHT22;861;48.808;9.006;2023-02-26T03:50:02;1.80;99.90
1728;DHT22;861;48.808;9.006;2023-02-26T03:52:35;1.70;99.90
1728;DHT22;861;48.808;9.006;2023-02-26T03:55:12;1.70;99.90
1728;DHT22;861;48.808;9.006;2023-02-26T03:57:48;1.70;99.90
1728;DHT22;861;48.808;9.006;2023-02-26T04:00:15;1.70;99.90
1728;DHT22;861;48.808;9.006;2023-02-26T04:03:10;1.70;99.90
1728;DHT22;861;48.808;9.006;2023-02-26T04:05:52;1.70;99.90
1728;DHT22;861;48.808;9.006;2023-02-26T04:08:23;1.70;99.90
1728;DHT22;861;48.808;9.006;2023-02-26T04:11:08;1.70;99.90
1728;DHT22;861;48.808;9.006;2023-02-26T04:13:42;1.60;99.90
1728;DHT22;861;48.808;9.006;2023-02-26T04:16:08;1.60;99.90
1728;DHT22;861;48.808;9.006;2023-02-26T04:18:34;1.50;99.90
1728;DHT22;861;48.808;9.006;2023-02-26T04:21:00;1.60;99.90
1728;DHT22;861;48.808;9.006;2023-02-26T04:23:27;1.50;99.90
1728;DHT22;861;48.808;9.006;2023-02-26T04:25:53;1.50;99.90
1728;DHT22;861;48.808;9.006;2023-02-26T04:28:20;1.30;99.90
1728;DHT22;861;48.808;9.006;2023-02-26T04:30:46;1.30;99.90
1728;DHT22;861;48.808;9.006;2023-02-26T04:33:14;1.30;99.90
1728;DHT22;861;48.808;9.006;2023-02-26T04:35:41;1.30;99.90
1728;DHT22;861;48.808;9.006;2023-02-26T04:38:07;1.30;99.90
1728;DHT22;861;48.808;9.006;2023-02-26T04:40:34;1.20;99.90
1728;DHT22;861;48.808;9.006;2023-02-26T04:43:00;1.30;99.90
1728;DHT22;861;48.808;9.006;2023-02-26T04:45:26;1.20;99.90
1728;DHT22;861;48.808;9.006;2023-02-26T04:47:52;1.10;99.90
1728;DHT22;861;48.808;9.006;2023-02-26T04:50:18;1.10;99.90
1728;DHT22;861;48.808;9.006;2023-02-26T04:52:44;1.10;99.90
1728;DHT22;861;48.808;9.006;2023-02-26T04:55:10;1.10;99.90
1728;DHT22;861;48.808;9.006;2023-02-26T04:57:37;1.00;99.90
1728;DHT22;861;48.808;9.006;2023-02-26T05:00:04;0.90;99.90
1728;DHT22;861;48.808;9.006;2023-02-26T05:02:33;0.90;99.90
1728;DHT22;861;48.808;9.006;2023-02-26T05:05:00;1.00;99.90
1728;DHT22;861;48.808;9.006;2023-02-26T05:07:26;1.00;99.90
1728;DHT22;861;48.808;9.006;2023-02-26T05:09:52;0.90;99.90
1728;DHT22;861;48.808;9.006;2023-02-26T05:12:18;0.80;99.90
1728;DHT22;861;48.808;9.006;2023-02-26T05:14:44;0.70;99.90
1728;DHT22;861;48.808;9.006;2023-02-26T05:17:11;0.70;99.90
1728;DHT22;861;48.808;9.006;2023-02-26T05:19:37;0.70;99.90
1728;DHT22;861;48.808;9.006;2023-02-26T05:22:03;0.60;99.90
1728;DHT22;861;48.808;9.006;2023-02-26T05:24:29;0.60;99.90
1728;DHT22;861;48.808;9.006;2023-02-26T05:26:55;0.60;99.90
1728;DHT22;861;48.808;9.006;2023-02-26T05:29:21;0.80;99.90
1728;DHT22;861;48.808;9.006;2023-02-26T05:31:47;0.70;99.90
1728;DHT22;861;48.808;9.006;2023-02-26T05:34:14;0.70;99.90
1728;DHT22;861;48.808;9.006;2023-02-26T05:36:40;0.70;99.90
1728;DHT22;861;48.808;9.006;2023-02-26T05:39:06;0.70;99.90
1728;DHT22;861;48.808;9.006;2023-02-26T05:41:34;0.70;99.90
1728;DHT22;861;48.808;9.006;2023-02-26T05:44:00;0.70;99.90
1728;DHT22;861;48.808;9.006;2023-02-26T05:46:27;0.60;99.90
1728;DHT22;861;48.808;9.006;2023-02-26T05:48:53;0.50;99.90
1728;DHT22;861;48.808;9.006;2023-02-26T05:51:19;0.40;99.90
1728;DHT22;861;48.808;9.006;2023-02-26T05:53:45;0.30;99.90
1728;DHT22;861;48.808;9.006;2023-02-26T05:56:12;0.20;99.90
1728;DHT22;861;48.808;9.006;2023-02-26T05:58:38;0.40;99.90
1728;DHT22;861;48.808;9.006;2023-02-26T06:01:04;0.30;99.90
1728;DHT22;861;48.808;9.006;2023-02-26T06:03:30;0.30;99.90
1728;DHT22;861;48.808;9.006;2023-02-26T06:05:57;0.40;99.90
1728;DHT22;861;48.808;9.006;2023-02-26T06:08:23;0.30;99.90
1728;DHT22;861;48.808;9.006;2023-02-26T06:10:50;0.30;99.90
1728;DHT22;861;48.808;9.006;2023-02-26T06:13:18;0.30;99.90
1728;DHT22;861;48.808;9.006;2023-02-26T06:15:44;0.40;99.90
1728;DHT22;861;48.808;9.006;2023-02-26T06:18:14;0.40;99.90
1728;DHT22;861;48.808;9.006;2023-02-26T06:20:40;0.30;99.90
1728;DHT22;861;48.808;9.006;2023-02-26T06:23:06;0.30;99.90
1728;DHT22;861;48.808;9.006;2023-02-26T06:25:32;0.20;99.90
1728;DHT22;861;48.808;9.006;2023-02-26T06:27:58;0.10;99.90
1728;DHT22;861;48.808;9.006;2023-02-26T06:30:24;0.10;99.90
1728;DHT22;861;48.808;9.006;2023-02-26T06:32:50;0.00;99.90
1728;DHT22;861;48.808;9.006;2023-02-26T06:35:17;0.00;99.90
1728;DHT22;861;48.808;9.006;2023-02-26T06:37:43;0.10;99.90
1728;DHT22;861;48.808;9.006;2023-02-26T06:40:10;0.00;99.90
1728;DHT22;861;48.808;9.006;2023-02-26T06:42:38;0.00;99.90
1728;DHT22;861;48.808;9.006;2023-02-26T06:45:05;0.00;99.90
1728;DHT22;861;48.808;9.006;2023-02-26T06:47:32;0.20;99.90
1728;DHT22;861;48.808;9.006;2023-02-26T06:49:58;0.30;99.90
1728;DHT22;861;48.808;9.006;2023-02-26T06:52:24;0.50;99.90
1728;DHT22;861;48.808;9.006;2023-02-26T06:54:51;0.60;99.90
1728;DHT22;861;48.808;9.006;2023-02-26T06:57:17;0.60;99.90
1728;DHT22;861;48.808;9.006;2023-02-26T06:59:43;0.50;99.90
1728;DHT22;861;48.808;9.006;2023-02-26T07:02:17;0.40;99.90
1728;DHT22;861;48.808;9.006;2023-02-26T07:04:46;0.40;99.90
1728;DHT22;861;48.808;9.006;2023-02-26T07:07:13;0.40;99.90
1728;DHT22;861;48.808;9.006;2023-02-26T07:09:40;0.40;99.90
1728;DHT22;861;48.808;9.006;2023-02-26T07:12:07;0.50;99.90
1728;DHT22;861;48.808;9.006;2023-02-26T07:14:34;0.50;99.90
1728;DHT22;861;48.808;9.006;2023-02-26T07:17:02;0.60;99.90
1728;DHT22;861;48.808;9.006;2023-02-26T07:19:28;0.60;99.90
1728;DHT22;861;48.808;9.006;2023-02-26T07:21:55;0.60;99.90
1728;DHT22;861;48.808;9.006;2023-02-26T07:24:22;0.70;99.90
1728;DHT22;861;48.808;9.006;2023-02-26T07:26:48;0.80;99.90
1728;DHT22;861;48.808;9.006;2023-02-26T07:29:14;0.90;99.90
1728;DHT22;861;48.808;9.006;2023-02-26T07:31:40;0.80;99.90
1728;DHT22;861;48.808;9.006;2023-02-26T07:34:07;0.80;99.90
1728;DHT22;861;48.808;9.006;2023-02-26T07:36:33;0.80;99.90
1728;DHT22;861;48.808;9.006;2023-02-26T07:38:59;1.00;99.90
1728;DHT22;861;48.808;9.006;2023-02-26T07:41:25;0.90;99.90
1728;DHT22;861;48.808;9.006;2023-02-26T07:43:51;0.90;99.90
1728;DHT22;861;48.808;9.006;2023-02-26T07:46:17;0.80;99.90
1728;DHT22;861;48.808;9.006;2023-02-26T07:48:44;0.80;99.90
1728;DHT22;861;48.808;9.006;2023-02-26T07:51:10;0.80;99.90
1728;DHT22;861;48.808;9.006;2023-02-26T07:53:36;0.80;99.90
1728;DHT22;861;48.808;9.006;2023-02-26T07:56:02;0.90;99.90
1728;DHT22;861;48.808;9.006;2023-02-26T07:58:29;0.70;99.90
1728;DHT22;861;48.808;9.006;2023-02-26T08:00:55;0.70;99.90
1728;DHT22;861;48.808;9.006;2023-02-26T08:03:23;0.70;99.90
1728;DHT22;861;48.808;9.006;2023-02-26T08:05:49;0.80;99.90
1728;DHT22;861;48.808;9.006;2023-02-26T08:08:15;0.80;99.90
1728;DHT22;861;48.808;9.006;2023-02-26T08:10:42;0.90;99.90
1728;DHT22;861;48.808;9.006;2023-02-26T08:13:08;0.90;99.90
1728;DHT22;861;48.808;9.006;2023-02-26T08:15:35;1.00;99.90
1728;DHT22;861;48.808;9.006;2023-02-26T08:18:01;1.00;99.90
1728;DHT22;861;48.808;9.006;2023-02-26T08:20:28;1.10;99.90
1728;DHT22;861;48.808;9.006;2023-02-26T08:22:54;1.20;99.90
1728;DHT22;861;48.808;9.006;2023-02-26T08:25:20;1.10;99.90
1728;DHT22;861;48.808;9.006;2023-02-26T08:27:46;1.10;99.90
1728;DHT22;861;48.808;9.006;2023-02-26T08:30:13;1.00;99.90
1728;DHT22;861;48.808;9.006;2023-02-26T08:32:40;1.10;99.90
1728;DHT22;861;48.808;9.006;2023-02-26T08:35:08;1.20;99.90
1728;DHT22;861;48.808;9.006;2023-02-26T08:37:35;1.30;99.90
1728;DHT22;861;48.808;9.006;2023-02-26T08:40:01;1.30;99.90
1728;DHT22;861;48.808;9.006;2023-02-26T08:42:28;1.50;99.90
1728;DHT22;861;48.808;9.006;2023-02-26T08:44:54;1.50;99.90
1728;DHT22;861;48.808;9.006;2023-02-26T08:47:20;1.50;99.90
1728;DHT22;861;48.808;9.006;2023-02-26T08:49:47;1.50;99.90
1728;DHT22;861;48.808;9.006;2023-02-26T08:52:13;1.50;99.90
1728;DHT22;861;48.808;9.006;2023-02-26T08:54:40;1.50;99.90
1728;DHT22;861;48.808;9.006;2023-02-26T08:57:06;1.40;99.90
1728;DHT22;861;48.808;9.006;2023-02-26T08:59:32;1.50;99.90
1728;DHT22;861;48.808;9.006;2023-02-26T09:01:58;1.50;99.90
1728;DHT22;861;48.808;9.006;2023-02-26T09:04:24;1.60;99.90
1728;DHT22;861;48.808;9.006;2023-02-26T09:06:51;1.50;99.90
1728;DHT22;861;48.808;9.006;2023-02-26T09:09:18;1.60;99.90
1728;DHT22;861;48.808;9.006;2023-02-26T09:11:44;1.50;99.90
1728;DHT22;861;48.808;9.006;2023-02-26T09:14:10;1.40;99.90
1728;DHT22;861;48.808;9.006;2023-02-26T09:16:37;1.20;99.90
1728;DHT22;861;48.808;9.006;2023-02-26T09:19:05;1.10;99.90
1728;DHT22;861;48.808;9.006;2023-02-26T09:21:32;1.10;99.90
1728;DHT22;861;48.808;9.006;2023-02-26T09:24:00;1.00;99.90
1728;DHT22;861;48.808;9.006;2023-02-26T09:26:27;0.90;99.90
1728;DHT22;861;48.808;9.006;2023-02-26T09:28:53;1.00;99.90
1728;DHT22;861;48.808;9.006;2023-02-26T09:31:19;0.90;99.90
1728;DHT22;861;48.808;9.006;2023-02-26T09:33:45;0.90;99.90
1728;DHT22;861;48.808;9.006;2023-02-26T09:36:11;1.00;99.90
1728;DHT22;861;48.808;9.006;2023-02-26T09:38:37;1.00;99.90
1728;DHT22;861;48.808;9.006;2023-02-26T09:41:44;1.10;99.90
1728;DHT22;861;48.808;9.006;2023-02-26T09:44:32;1.10;99.90
1728;DHT22;861;48.808;9.006;2023-02-26T09:47:43;1.20;99.90
1728;DHT22;861;48.808;9.006;2023-02-26T09:50:27;1.30;99.90
1728;DHT22;861;48.808;9.006;2023-02-26T09:53:32;1.40;99.90
1728;DHT22;861;48.808;9.006;2023-02-26T09:56:25;1.30;99.90
1728;DHT22;861;48.808;9.006;2023-02-26T09:58:52;1.20;99.90
1728;DHT22;861;48.808;9.006;2023-02-26T10:01:28;1.30;99.90
1728;DHT22;861;48.808;9.006;2023-02-26T10:08:13;1.30;99.90
1728;DHT22;861;48.808;9.006;2023-02-26T10:11:20;1.40;99.90
1728;DHT22;861;48.808;9.006;2023-02-26T10:14:16;1.10;99.90
1728;DHT22;861;48.808;9.006;2023-02-26T10:17:02;1.20;99.90
1728;DHT22;861;48.808;9.006;2023-02-26T10:19:50;1.20;99.90
1728;DHT22;861;48.808;9.006;2023-02-26T10:22:36;1.10;99.90
1728;DHT22;861;48.808;9.006;2023-02-26T10:25:23;1.10;99.90
1728;DHT22;861;48.808;9.006;2023-02-26T10:28:23;1.10;99.90
1728;DHT22;861;48.808;9.006;2023-02-26T10:35:07;1.20;99.90
1728;DHT22;861;48.808;9.006;2023-02-26T10:37:56;1.30;99.90
1728;DHT22;861;48.808;9.006;2023-02-26T10:40:44;1.30;99.90
1728;DHT22;861;48.808;9.006;2023-02-26T10:50:12;1.60;99.90
1728;DHT22;861;48.808;9.006;2023-02-26T10:52:45;1.80;99.90
1728;DHT22;861;48.808;9.006;2023-02-26T10:55:40;1.90;99.90
1728;DHT22;861;48.808;9.006;2023-02-26T10:58:24;1.90;99.90
1728;DHT22;861;48.808;9.006;2023-02-26T11:00:54;1.90;99.90
1728;DHT22;861;48.808;9.006;2023-02-26T11:03:39;2.00;99.90
1728;DHT22;861;48.808;9.006;2023-02-26T11:06:19;1.80;99.90
1728;DHT22;861;48.808;9.006;2023-02-26T11:08:55;1.80;99.90
1728;DHT22;861;48.808;9.006;2023-02-26T11:12:04;1.90;99.90
1728;DHT22;861;48.808;9.006;2023-02-26T11:14:42;2.00;99.90
1728;DHT22;861;48.808;9.006;2023-02-26T11:17:32;1.90;99.90
1728;DHT22;861;48.808;9.006;2023-02-26T11:20:14;2.00;99.90
1728;DHT22;861;48.808;9.006;2023-02-26T11:22:52;2.00;99.90
1728;DHT22;861;48.808;9.006;2023-02-26T11:25:27;2.10;99.90
1728;DHT22;861;48.808;9.006;2023-02-26T11:28:29;2.20;99.90
1728;DHT22;861;48.808;9.006;2023-02-26T11:31:07;2.00;99.90
1728;DHT22;861;48.808;9.006;2023-02-26T11:33:43;2.00;99.90
1728;DHT22;861;48.808;9.006;2023-02-26T11:36:21;2.10;99.90
1728;DHT22;861;48.808;9.006;2023-02-26T11:38:59;2.20;99.90
1728;DHT22;861;48.808;9.006;2023-02-26T11:41:43;2.20;99.90
1728;DHT22;861;48.808;9.006;2023-02-26T11:44:17;2.30;99.90
1728;DHT22;861;48.808;9.006;2023-02-26T11:47:18;2.50;99.90
1728;DHT22;861;48.808;9.006;2023-02-26T11:50:00;2.60;99.90
1728;DHT22;861;48.808;9.006;2023-02-26T11:52:41;2.80;99.90
1728;DHT22;861;48.808;9.006;2023-02-26T11:55:35;2.80;99.90
1728;DHT22;861;48.808;9.006;2023-02-26T11:58:23;2.90;99.90
1728;DHT22;861;48.808;9.006;2023-02-26T12:00:58;2.80;99.90
1728;DHT22;861;48.808;9.006;2023-02-26T12:03:32;2.90;99.90
1728;DHT22;861;48.808;9.006;2023-02-26T12:06:17;2.80;99.90
1728;DHT22;861;48.808;9.006;2023-02-26T12:08:47;2.90;99.90
1728;DHT22;861;48.808;9.006;2023-02-26T12:11:51;2.80;99.90
1728;DHT22;861;48.808;9.006;2023-02-26T12:19:00;2.70;99.90
1728;DHT22;861;48.808;9.006;2023-02-26T12:22:05;2.70;99.90
1728;DHT22;861;48.808;9.006;2023-02-26T12:28:10;2.60;99.90
1728;DHT22;861;48.808;9.006;2023-02-26T12:31:59;2.50;99.90
1728;DHT22;861;48.808;9.006;2023-02-26T12:35:09;2.40;99.90
1728;DHT22;861;48.808;9.006;2023-02-26T12:38:14;2.60;99.90
1728;DHT22;861;48.808;9.006;2023-02-26T12:41:31;2.60;99.90
1728;DHT22;861;48.808;9.006;2023-02-26T12:52:26;2.70;99.90
1728;DHT22;861;48.808;9.006;2023-02-26T12:55:29;2.70;99.90
1728;DHT22;861;48.808;9.006;2023-02-26T13:05:47;2.60;99.90
1728;DHT22;861;48.808;9.006;2023-02-26T13:09:02;2.50;99.90
1728;DHT22;861;48.808;9.006;2023-02-26T13:15:37;2.60;99.90
1728;DHT22;861;48.808;9.006;2023-02-26T13:18:47;2.70;99.90
1728;DHT22;861;48.808;9.006;2023-02-26T13:21:33;2.70;99.90
1728;DHT22;861;48.808;9.006;2023-02-26T13:24:31;2.70;99.90
1728;DHT22;861;48.808;9.006;2023-02-26T13:27:11;2.70;99.90
1728;DHT22;861;48.808;9.006;2023-02-26T13:29:50;2.70;99.90
1728;DHT22;861;48.808;9.006;2023-02-26T13:32:34;2.70;99.90
1728;DHT22;861;48.808;9.006;2023-02-26T13:35:21;2.80;99.90
1728;DHT22;861;48.808;9.006;2023-02-26T13:38:01;2.80;99.90
1728;DHT22;861;48.808;9.006;2023-02-26T13:44:33;2.90;99.90
1728;DHT22;861;48.808;9.006;2023-02-26T13:48:09;2.90;99.90
1728;DHT22;861;48.808;9.006;2023-02-26T13:51:14;2.80;99.90
1728;DHT22;861;48.808;9.006;2023-02-26T13:54:04;3.00;99.90
1728;DHT22;861;48.808;9.006;2023-02-26T13:57:24;3.10;99.90
1728;DHT22;861;48.808;9.006;2023-02-26T14:00:32;3.20;99.90
1728;DHT22;861;48.808;9.006;2023-02-26T14:08:24;3.20;99.90
1728;DHT22;861;48.808;9.006;2023-02-26T14:11:33;3.20;99.90
1728;DHT22;861;48.808;9.006;2023-02-26T14:14:28;3.30;99.90
1728;DHT22;861;48.808;9.006;2023-02-26T14:20:22;3.30;99.90
1728;DHT22;861;48.808;9.006;2023-02-26T14:31:19;3.60;99.90
1728;DHT22;861;48.808;9.006;2023-02-26T14:34:26;3.60;99.90
1728;DHT22;861;48.808;9.006;2023-02-26T14:37:06;3.70;99.90
1728;DHT22;861;48.808;9.006;2023-02-26T14:39:48;3.70;99.90
1728;DHT22;861;48.808;9.006;2023-02-26T14:45:41;3.70;99.90
1728;DHT22;861;48.808;9.006;2023-02-26T14:48:16;3.80;99.90
1728;DHT22;861;48.808;9.006;2023-02-26T14:51:16;3.60;99.90
1728;DHT22;861;48.808;9.006;2023-02-26T14:54:48;3.50;99.90
1728;DHT22;861;48.808;9.006;2023-02-26T14:57:56;3.60;99.90
1728;DHT22;861;48.808;9.006;2023-02-26T15:04:13;3.70;99.90
1728;DHT22;861;48.808;9.006;2023-02-26T15:11:21;3.60;99.90
1728;DHT22;861;48.808;9.006;2023-02-26T15:21:40;3.30;99.90
1728;DHT22;861;48.808;9.006;2023-02-26T15:24:46;3.40;99.90
1728;DHT22;861;48.808;9.006;2023-02-26T15:27:19;3.40;99.90
1728;DHT22;861;48.808;9.006;2023-02-26T15:29:48;3.40;99.90
1728;DHT22;861;48.808;9.006;2023-02-26T15:32:30;3.20;99.90
1728;DHT22;861;48.808;9.006;2023-02-26T15:35:58;3.20;99.90
1728;DHT22;861;48.808;9.006;2023-02-26T15:38:47;3.10;99.90
1728;DHT22;861;48.808;9.006;2023-02-26T15:41:18;3.00;99.90
1728;DHT22;861;48.808;9.006;2023-02-26T15:43:52;2.90;99.90
1728;DHT22;861;48.808;9.006;2023-02-26T15:46:35;2.90;99.90
1728;DHT22;861;48.808;9.006;2023-02-26T15:49:37;2.90;99.90
1728;DHT22;861;48.808;9.006;2023-02-26T15:52:18;3.00;99.90
1728;DHT22;861;48.808;9.006;2023-02-26T15:54:59;3.10;99.90
1728;DHT22;861;48.808;9.006;2023-02-26T15:57:31;3.30;99.90
1728;DHT22;861;48.808;9.006;2023-02-26T16:00:12;3.60;99.90
1728;DHT22;861;48.808;9.006;2023-02-26T16:02:56;3.80;99.90
1728;DHT22;861;48.808;9.006;2023-02-26T16:05:26;4.00;99.90
1728;DHT22;861;48.808;9.006;2023-02-26T16:07:55;4.10;99.90
1728;DHT22;861;48.808;9.006;2023-02-26T16:10:38;4.10;99.90
1728;DHT22;861;48.808;9.006;2023-02-26T16:13:26;4.00;99.90
1728;DHT22;861;48.808;9.006;2023-02-26T16:16:10;3.90;99.90
1728;DHT22;861;48.808;9.006;2023-02-26T16:18:47;3.70;99.90
1728;DHT22;861;48.808;9.006;2023-02-26T16:21:43;3.50;99.90
1728;DHT22;861;48.808;9.006;2023-02-26T16:24:18;3.40;99.90
1728;DHT22;861;48.808;9.006;2023-02-26T16:26:59;3.20;99.90
1728;DHT22;861;48.808;9.006;2023-02-26T16:29:35;3.10;99.90
1728;DHT22;861;48.808;9.006;2023-02-26T16:32:11;3.00;99.90
1728;DHT22;861;48.808;9.006;2023-02-26T16:34:49;2.90;99.90
1728;DHT22;861;48.808;9.006;2023-02-26T16:43:03;2.50;99.90
1728;DHT22;861;48.808;9.006;2023-02-26T16:46:22;2.50;99.90
1728;DHT22;861;48.808;9.006;2023-02-26T16:49:19;2.40;99.90
1728;DHT22;861;48.808;9.006;2023-02-26T16:51:54;2.40;99.90
1728;DHT22;861;48.808;9.006;2023-02-26T16:54:37;2.40;99.90
1728;DHT22;861;48.808;9.006;2023-02-26T16:57:21;2.50;99.90
1728;DHT22;861;48.808;9.006;2023-02-26T17:00:04;2.50;99.90
1728;DHT22;861;48.808;9.006;2023-02-26T17:02:46;2.50;99.90
1728;DHT22;861;48.808;9.006;2023-02-26T17:05:23;2.50;99.90
1728;DHT22;861;48.808;9.006;2023-02-26T17:08:13;2.40;99.90
1728;DHT22;861;48.808;9.006;2023-02-26T17:11:21;2.50;99.90
1728;DHT22;861;48.808;9.006;2023-02-26T17:14:59;2.30;99.90
1728;DHT22;861;48.808;9.006;2023-02-26T17:17:09;2.30;99.90
1728;DHT22;861;48.808;9.006;2023-02-26T17:19:37;2.30;99.90
1728;DHT22;861;48.808;9.006;2023-02-26T17:22:07;2.30;99.90
1728;DHT22;861;48.808;9.006;2023-02-26T17:24:43;2.30;99.90
1728;DHT22;861;48.808;9.006;2023-02-26T17:27:50;2.40;99.90
1728;DHT22;861;48.808;9.006;2023-02-26T17:30:15;2.30;99.90
1728;DHT22;861;48.808;9.006;2023-02-26T17:32:45;2.30;99.90
1728;DHT22;861;48.808;9.006;2023-02-26T17:35:14;2.30;99.90
1728;DHT22;861;48.808;9.006;2023-02-26T17:37:44;2.40;99.90
1728;DHT22;861;48.808;9.006;2023-02-26T17:40:27;2.20;99.90
1728;DHT22;861;48.808;9.006;2023-02-26T17:42:59;2.30;99.90
1728;DHT22;861;48.808;9.006;2023-02-26T17:45:25;2.20;99.90
1728;DHT22;861;48.808;9.006;2023-02-26T17:47:52;2.20;99.90
1728;DHT22;861;48.808;9.006;2023-02-26T17:53:19;2.10;99.90
1728;DHT22;861;48.808;9.006;2023-02-26T17:55:51;2.20;99.90
1728;DHT22;861;48.808;9.006;2023-02-26T17:58:27;2.20;99.90
1728;DHT22;861;48.808;9.006;2023-02-26T18:01:01;2.20;99.90
1728;DHT22;861;48.808;9.006;2023-02-26T18:03:29;2.00;99.90
1728;DHT22;861;48.808;9.006;2023-02-26T18:05:57;1.90;99.90
1728;DHT22;861;48.808;9.006;2023-02-26T18:08:29;2.00;99.90
1728;DHT22;861;48.808;9.006;2023-02-26T18:11:01;1.90;99.90
1728;DHT22;861;48.808;9.006;2023-02-26T18:13:29;1.70;99.90
1728;DHT22;861;48.808;9.006;2023-02-26T18:15:57;1.80;99.90
1728;DHT22;861;48.808;9.006;2023-02-26T18:18:28;1.70;99.90
1728;DHT22;861;48.808;9.006;2023-02-26T18:20:57;1.60;99.90
1728;DHT22;861;48.808;9.006;2023-02-26T18:23:24;1.60;99.90
1728;DHT22;861;48.808;9.006;2023-02-26T18:25:53;1.60;99.90
1728;DHT22;861;48.808;9.006;2023-02-26T18:28:27;1.60;99.90
1728;DHT22;861;48.808;9.006;2023-02-26T18:30:56;1.60;99.90
1728;DHT22;861;48.808;9.006;2023-02-26T18:33:23;1.50;99.90
1728;DHT22;861;48.808;9.006;2023-02-26T18:35:54;1.40;99.90
1728;DHT22;861;48.808;9.006;2023-02-26T18:38:26;1.30;99.90
1728;DHT22;861;48.808;9.006;2023-02-26T18:40:54;1.40;99.90
1728;DHT22;861;48.808;9.006;2023-02-26T18:43:21;1.40;99.90
1728;DHT22;861;48.808;9.006;2023-02-26T18:45:49;1.40;99.90
1728;DHT22;861;48.808;9.006;2023-02-26T18:48:19;1.40;99.90
1728;DHT22;861;48.808;9.006;2023-02-26T18:50:47;1.30;99.90
1728;DHT22;861;48.808;9.006;2023-02-26T18:53:14;1.30;99.90
1728;DHT22;861;48.808;9.006;2023-02-26T18:55:43;1.20;99.90
1728;DHT22;861;48.808;9.006;2023-02-26T18:58:09;1.30;99.90
1728;DHT22;861;48.808;9.006;2023-02-26T19:00:36;1.20;99.90
1728;DHT22;861;48.808;9.006;2023-02-26T19:03:02;1.20;99.90
1728;DHT22;861;48.808;9.006;2023-02-26T19:05:28;1.20;99.90
1728;DHT22;861;48.808;9.006;2023-02-26T19:07:54;1.30;99.90
1728;DHT22;861;48.808;9.006;2023-02-26T19:10:21;1.20;99.90
1728;DHT22;861;48.808;9.006;2023-02-26T19:12:48;1.20;99.90
1728;DHT22;861;48.808;9.006;2023-02-26T19:15:15;1.10;99.90
1728;DHT22;861;48.808;9.006;2023-02-26T19:17:42;1.00;99.90
1728;DHT22;861;48.808;9.006;2023-02-26T19:20:10;1.00;99.90
1728;DHT22;861;48.808;9.006;2023-02-26T19:22:38;1.10;99.90
1728;DHT22;861;48.808;9.006;2023-02-26T19:25:08;1.10;99.90
1728;DHT22;861;48.808;9.006;2023-02-26T19:27:36;1.10;99.90
1728;DHT22;861;48.808;9.006;2023-02-26T19:30:06;1.10;99.90
1728;DHT22;861;48.808;9.006;2023-02-26T19:32:34;1.10;99.90
1728;DHT22;861;48.808;9.006;2023-02-26T19:35:00;1.10;99.90
1728;DHT22;861;48.808;9.006;2023-02-26T19:37:26;1.10;99.90
1728;DHT22;861;48.808;9.006;2023-02-26T19:39:52;1.00;99.90
1728;DHT22;861;48.808;9.006;2023-02-26T19:42:18;1.10;99.90
1728;DHT22;861;48.808;9.006;2023-02-26T19:44:44;1.00;99.90
1728;DHT22;861;48.808;9.006;2023-02-26T19:47:10;0.90;99.90
1728;DHT22;861;48.808;9.006;2023-02-26T19:49:37;0.90;99.90
1728;DHT22;861;48.808;9.006;2023-02-26T19:52:03;0.90;99.90